sensor_id;sensor_type;location;lat;lon;timestamp;P1;durP1;ratioP1;P2;durP2;ratioP2
54388;SDS011;40975;50.390;8.640;2023-04-01T00:01:53;2.58;;;0.88;;
54388;SDS011;40975;50.390;8.640;2023-04-01T00:04:19;3.65;;;0.90;;
54388;SDS011;40975;50.390;8.640;2023-04-01T00:06:45;6.20;;;1.20;;
54388;SDS011;40975;50.390;8.640;2023-04-01T00:09:12;2.80;;;1.00;;
54388;SDS011;40975;50.390;8.640;2023-04-01T00:11:37;1.70;;;0.80;;
54388;SDS011;40975;50.390;8.640;2023-04-01T00:14:03;4.28;;;0.88;;
54388;SDS011;40975;50.390;8.640;2023-04-01T00:16:29;3.30;;;0.80;;
54388;SDS011;40975;50.390;8.640;2023-04-01T00:18:55;3.03;;;0.90;;
54388;SDS011;40975;50.390;8.640;2023-04-01T00:21:20;2.30;;;0.73;;
54388;SDS011;40975;50.390;8.640;2023-04-01T00:23:47;1.45;;;0.88;;
54388;SDS011;40975;50.390;8.640;2023-04-01T00:26:13;4.82;;;1.05;;
54388;SDS011;40975;50.390;8.640;2023-04-01T00:28:39;5.22;;;0.90;;
54388;SDS011;40975;50.390;8.640;2023-04-01T00:31:06;2.50;;;0.98;;
54388;SDS011;40975;50.390;8.640;2023-04-01T00:33:33;5.30;;;1.00;;
54388;SDS011;40975;50.390;8.640;2023-04-01T00:36:11;3.00;;;0.90;;
54388;SDS011;40975;50.390;8.640;2023-04-01T00:38:38;3.67;;;0.95;;
54388;SDS011;40975;50.390;8.640;2023-04-01T00:41:04;3.70;;;0.80;;
54388;SDS011;40975;50.390;8.640;2023-04-01T00:43:30;1.98;;;0.95;;
54388;SDS011;40975;50.390;8.640;2023-04-01T00:45:56;7.15;;;1.00;;
54388;SDS011;40975;50.390;8.640;2023-04-01T00:48:23;2.47;;;0.63;;
54388;SDS011;40975;50.390;8.640;2023-04-01T00:50:55;3.28;;;0.68;;
54388;SDS011;40975;50.390;8.640;2023-04-01T00:53:25;2.63;;;0.80;;
54388;SDS011;40975;50.390;8.640;2023-04-01T00:58:38;4.28;;;1.00;;
54388;SDS011;40975;50.390;8.640;2023-04-01T01:01:06;3.58;;;0.95;;
54388;SDS011;40975;50.390;8.640;2023-04-01T01:03:33;2.05;;;0.85;;
54388;SDS011;40975;50.390;8.640;2023-04-01T01:06:16;6.50;;;1.25;;
54388;SDS011;40975;50.390;8.640;2023-04-01T01:09:10;3.33;;;1.33;;
54388;SDS011;40975;50.390;8.640;2023-04-01T01:11:42;4.10;;;0.68;;
54388;SDS011;40975;50.390;8.640;2023-04-01T01:14:19;2.63;;;1.02;;
54388;SDS011;40975;50.390;8.640;2023-04-01T01:17:06;2.28;;;0.80;;
54388;SDS011;40975;50.390;8.640;2023-04-01T01:19:38;2.42;;;0.50;;
54388;SDS011;40975;50.390;8.640;2023-04-01T01:27:56;6.55;;;0.82;;
54388;SDS011;40975;50.390;8.640;2023-04-01T01:30:37;3.65;;;0.70;;
54388;SDS011;40975;50.390;8.640;2023-04-01T01:33:17;1.85;;;0.57;;
54388;SDS011;40975;50.390;8.640;2023-04-01T01:35:54;2.90;;;0.60;;
54388;SDS011;40975;50.390;8.640;2023-04-01T01:38:22;0.15;;;0.15;;
54388;SDS011;40975;50.390;8.640;2023-04-01T01:40:59;0.00;;;0.00;;
54388;SDS011;40975;50.390;8.640;2023-04-01T01:43:38;0.00;;;0.00;;
54388;SDS011;40975;50.390;8.640;2023-04-01T01:46:13;0.00;;;0.00;;
54388;SDS011;40975;50.390;8.640;2023-04-01T01:48:42;0.00;;;0.00;;
54388;SDS011;40975;50.390;8.640;2023-04-01T01:51:10;0.00;;;0.00;;
54388;SDS011;40975;50.390;8.640;2023-04-01T01:53:36;0.00;;;0.00;;
54388;SDS011;40975;50.390;8.640;2023-04-01T01:56:02;0.00;;;0.00;;
54388;SDS011;40975;50.390;8.640;2023-04-01T01:58:33;0.60;;;0.30;;
54388;SDS011;40975;50.390;8.640;2023-04-01T02:01:08;0.00;;;0.00;;
54388;SDS011;40975;50.390;8.640;2023-04-01T02:03:39;0.00;;;0.00;;
54388;SDS011;40975;50.390;8.640;2023-04-01T02:06:09;0.00;;;0.00;;
54388;SDS011;40975;50.390;8.640;2023-04-01T02:08:41;0.00;;;0.00;;
54388;SDS011;40975;50.390;8.640;2023-04-01T02:11:12;0.00;;;0.00;;
54388;SDS011;40975;50.390;8.640;2023-04-01T02:13:44;0.00;;;0.00;;
54388;SDS011;40975;50.390;8.640;2023-04-01T02:16:19;0.00;;;0.00;;
54388;SDS011;40975;50.390;8.640;2023-04-01T02:18:49;0.00;;;0.00;;
54388;SDS011;40975;50.390;8.640;2023-04-01T02:21:18;0.00;;;0.00;;
54388;SDS011;40975;50.390;8.640;2023-04-01T02:23:47;0.00;;;0.00;;
54388;SDS011;40975;50.390;8.640;2023-04-01T02:26:12;0.00;;;0.00;;
54388;SDS011;40975;50.390;8.640;2023-04-01T02:28:38;0.00;;;0.00;;
54388;SDS011;40975;50.390;8.640;2023-04-01T02:31:07;0.00;;;0.00;;
54388;SDS011;40975;50.390;8.640;2023-04-01T02:33:35;0.00;;;0.00;;
54388;SDS011;40975;50.390;8.640;2023-04-01T02:36:02;0.00;;;0.00;;
54388;SDS011;40975;50.390;8.640;2023-04-01T02:38:29;0.00;;;0.00;;
54388;SDS011;40975;50.390;8.640;2023-04-01T02:40:59;0.00;;;0.00;;
54388;SDS011;40975;50.390;8.640;2023-04-01T02:43:26;0.00;;;0.00;;
54388;SDS011;40975;50.390;8.640;2023-04-01T02:45:51;0.00;;;0.00;;
54388;SDS011;40975;50.390;8.640;2023-04-01T02:48:17;0.00;;;0.00;;
54388;SDS011;40975;50.390;8.640;2023-04-01T02:50:42;0.00;;;0.00;;
54388;SDS011;40975;50.390;8.640;2023-04-01T02:53:08;0.00;;;0.00;;
54388;SDS011;40975;50.390;8.640;2023-04-01T02:55:34;0.00;;;0.00;;
54388;SDS011;40975;50.390;8.640;2023-04-01T02:57:59;0.00;;;0.00;;
54388;SDS011;40975;50.390;8.640;2023-04-01T03:00:27;0.00;;;0.00;;
54388;SDS011;40975;50.390;8.640;2023-04-01T03:02:52;0.00;;;0.00;;
54388;SDS011;40975;50.390;8.640;2023-04-01T03:05:18;0.00;;;0.00;;
54388;SDS011;40975;50.390;8.640;2023-04-01T03:07:44;0.00;;;0.00;;
54388;SDS011;40975;50.390;8.640;2023-04-01T03:10:10;0.00;;;0.00;;
54388;SDS011;40975;50.390;8.640;2023-04-01T03:12:36;0.00;;;0.00;;
54388;SDS011;40975;50.390;8.640;2023-04-01T03:15:01;0.00;;;0.00;;
54388;SDS011;40975;50.390;8.640;2023-04-01T03:17:27;0.00;;;0.00;;
54388;SDS011;40975;50.390;8.640;2023-04-01T03:19:52;0.00;;;0.00;;
54388;SDS011;40975;50.390;8.640;2023-04-01T03:22:18;0.00;;;0.00;;
54388;SDS011;40975;50.390;8.640;2023-04-01T03:24:45;0.00;;;0.00;;
54388;SDS011;40975;50.390;8.640;2023-04-01T03:27:14;0.00;;;0.00;;
54388;SDS011;40975;50.390;8.640;2023-04-01T03:29:39;0.00;;;0.00;;
54388;SDS011;40975;50.390;8.640;2023-04-01T03:32:05;0.00;;;0.00;;
54388;SDS011;40975;50.390;8.640;2023-04-01T03:34:31;0.00;;;0.00;;
54388;SDS011;40975;50.390;8.640;2023-04-01T03:36:56;0.00;;;0.00;;
54388;SDS011;40975;50.390;8.640;2023-04-01T03:39:22;0.00;;;0.00;;
54388;SDS011;40975;50.390;8.640;2023-04-01T03:41:49;0.00;;;0.00;;
54388;SDS011;40975;50.390;8.640;2023-04-01T03:44:14;0.00;;;0.00;;
54388;SDS011;40975;50.390;8.640;2023-04-01T03:46:40;0.00;;;0.00;;
54388;SDS011;40975;50.390;8.640;2023-04-01T03:49:07;0.00;;;0.00;;
54388;SDS011;40975;50.390;8.640;2023-04-01T03:51:37;0.35;;;0.35;;
54388;SDS011;40975;50.390;8.640;2023-04-01T03:54:03;0.00;;;0.00;;
54388;SDS011;40975;50.390;8.640;2023-04-01T03:56:29;0.00;;;0.00;;
54388;SDS011;40975;50.390;8.640;2023-04-01T03:58:55;0.00;;;0.00;;
54388;SDS011;40975;50.390;8.640;2023-04-01T04:01:21;0.00;;;0.00;;
54388;SDS011;40975;50.390;8.640;2023-04-01T04:03:49;0.00;;;0.00;;
54388;SDS011;40975;50.390;8.640;2023-04-01T04:06:16;0.00;;;0.00;;
54388;SDS011;40975;50.390;8.640;2023-04-01T04:08:43;0.00;;;0.00;;
54388;SDS011;40975;50.390;8.640;2023-04-01T04:11:09;0.00;;;0.00;;
54388;SDS011;40975;50.390;8.640;2023-04-01T04:13:38;0.00;;;0.00;;
54388;SDS011;40975;50.390;8.640;2023-04-01T04:16:03;0.00;;;0.00;;
54388;SDS011;40975;50.390;8.640;2023-04-01T04:18:29;0.00;;;0.00;;
54388;SDS011;40975;50.390;8.640;2023-04-01T04:20:55;0.00;;;0.00;;
54388;SDS011;40975;50.390;8.640;2023-04-01T04:23:21;0.00;;;0.00;;
54388;SDS011;40975;50.390;8.640;2023-04-01T04:26:00;0.00;;;0.00;;
54388;SDS011;40975;50.390;8.640;2023-04-01T04:28:28;0.00;;;0.00;;
54388;SDS011;40975;50.390;8.640;2023-04-01T04:30:55;0.00;;;0.00;;
54388;SDS011;40975;50.390;8.640;2023-04-01T04:33:21;0.00;;;0.00;;
54388;SDS011;40975;50.390;8.640;2023-04-01T04:35:47;0.00;;;0.00;;
54388;SDS011;40975;50.390;8.640;2023-04-01T04:38:14;0.00;;;0.00;;
54388;SDS011;40975;50.390;8.640;2023-04-01T04:40:40;0.00;;;0.00;;
54388;SDS011;40975;50.390;8.640;2023-04-01T04:43:07;0.00;;;0.00;;
54388;SDS011;40975;50.390;8.640;2023-04-01T04:45:36;0.00;;;0.00;;
54388;SDS011;40975;50.390;8.640;2023-04-01T04:48:02;0.00;;;0.00;;
54388;SDS011;40975;50.390;8.640;2023-04-01T04:50:31;0.00;;;0.00;;
54388;SDS011;40975;50.390;8.640;2023-04-01T04:52:56;0.00;;;0.00;;
54388;SDS011;40975;50.390;8.640;2023-04-01T04:55:22;0.00;;;0.00;;
54388;SDS011;40975;50.390;8.640;2023-04-01T04:57:57;0.00;;;0.00;;
54388;SDS011;40975;50.390;8.640;2023-04-01T05:00:22;3.33;;;3.08;;
54388;SDS011;40975;50.390;8.640;2023-04-01T05:05:19;0.00;;;0.00;;
54388;SDS011;40975;50.390;8.640;2023-04-01T05:07:45;0.90;;;0.90;;
54388;SDS011;40975;50.390;8.640;2023-04-01T05:10:10;0.00;;;0.00;;
54388;SDS011;40975;50.390;8.640;2023-04-01T05:12:36;0.00;;;0.00;;
54388;SDS011;40975;50.390;8.640;2023-04-01T05:15:05;0.00;;;0.00;;
54388;SDS011;40975;50.390;8.640;2023-04-01T05:17:31;0.00;;;0.00;;
54388;SDS011;40975;50.390;8.640;2023-04-01T05:19:57;0.00;;;0.00;;
54388;SDS011;40975;50.390;8.640;2023-04-01T05:22:23;0.00;;;0.00;;
54388;SDS011;40975;50.390;8.640;2023-04-01T05:24:49;0.00;;;0.00;;
54388;SDS011;40975;50.390;8.640;2023-04-01T05:27:14;0.00;;;0.00;;
54388;SDS011;40975;50.390;8.640;2023-04-01T05:29:41;0.00;;;0.00;;
54388;SDS011;40975;50.390;8.640;2023-04-01T05:32:12;0.00;;;0.00;;
54388;SDS011;40975;50.390;8.640;2023-04-01T05:34:37;0.00;;;0.00;;
54388;SDS011;40975;50.390;8.640;2023-04-01T05:37:03;0.00;;;0.00;;
54388;SDS011;40975;50.390;8.640;2023-04-01T05:39:28;0.00;;;0.00;;
54388;SDS011;40975;50.390;8.640;2023-04-01T05:41:53;0.20;;;0.20;;
54388;SDS011;40975;50.390;8.640;2023-04-01T05:44:19;0.52;;;0.52;;
54388;SDS011;40975;50.390;8.640;2023-04-01T05:47:04;0.00;;;0.00;;
54388;SDS011;40975;50.390;8.640;2023-04-01T05:49:30;0.00;;;0.00;;
54388;SDS011;40975;50.390;8.640;2023-04-01T05:51:56;0.00;;;0.00;;
54388;SDS011;40975;50.390;8.640;2023-04-01T05:54:21;0.00;;;0.00;;
54388;SDS011;40975;50.390;8.640;2023-04-01T05:56:47;0.00;;;0.00;;
54388;SDS011;40975;50.390;8.640;2023-04-01T05:59:13;0.00;;;0.00;;
54388;SDS011;40975;50.390;8.640;2023-04-01T06:01:39;0.00;;;0.00;;
54388;SDS011;40975;50.390;8.640;2023-04-01T06:04:05;0.00;;;0.00;;
54388;SDS011;40975;50.390;8.640;2023-04-01T06:06:31;0.00;;;0.00;;
54388;SDS011;40975;50.390;8.640;2023-04-01T06:09:12;0.00;;;0.00;;
54388;SDS011;40975;50.390;8.640;2023-04-01T06:14:32;0.00;;;0.00;;
54388;SDS011;40975;50.390;8.640;2023-04-01T06:20:12;0.00;;;0.00;;
54388;SDS011;40975;50.390;8.640;2023-04-01T06:25:43;0.00;;;0.00;;
54388;SDS011;40975;50.390;8.640;2023-04-01T06:46:58;0.00;;;0.00;;
54388;SDS011;40975;50.390;8.640;2023-04-01T06:49:57;0.00;;;0.00;;
54388;SDS011;40975;50.390;8.640;2023-04-01T06:53:05;0.00;;;0.00;;
54388;SDS011;40975;50.390;8.640;2023-04-01T06:55:53;0.00;;;0.00;;
54388;SDS011;40975;50.390;8.640;2023-04-01T06:58:49;0.00;;;0.00;;
54388;SDS011;40975;50.390;8.640;2023-04-01T07:01:22;0.00;;;0.00;;
54388;SDS011;40975;50.390;8.640;2023-04-01T07:04:11;0.00;;;0.00;;
54388;SDS011;40975;50.390;8.640;2023-04-01T07:06:53;0.00;;;0.00;;
54388;SDS011;40975;50.390;8.640;2023-04-01T07:09:24;0.00;;;0.00;;
54388;SDS011;40975;50.390;8.640;2023-04-01T07:15:26;0.00;;;0.00;;
54388;SDS011;40975;50.390;8.640;2023-04-01T07:17:57;0.00;;;0.00;;
54388;SDS011;40975;50.390;8.640;2023-04-01T07:20:31;0.00;;;0.00;;
54388;SDS011;40975;50.390;8.640;2023-04-01T07:23:06;0.00;;;0.00;;
54388;SDS011;40975;50.390;8.640;2023-04-01T07:25:55;0.00;;;0.00;;
54388;SDS011;40975;50.390;8.640;2023-04-01T07:28:29;0.00;;;0.00;;
54388;SDS011;40975;50.390;8.640;2023-04-01T07:31:51;0.00;;;0.00;;
54388;SDS011;40975;50.390;8.640;2023-04-01T07:36:57;0.00;;;0.00;;
54388;SDS011;40975;50.390;8.640;2023-04-01T07:51:00;0.00;;;0.00;;
54388;SDS011;40975;50.390;8.640;2023-04-01T07:53:34;0.00;;;0.00;;
54388;SDS011;40975;50.390;8.640;2023-04-01T07:56:11;0.00;;;0.00;;
54388;SDS011;40975;50.390;8.640;2023-04-01T07:58:59;0.00;;;0.00;;
54388;SDS011;40975;50.390;8.640;2023-04-01T08:04:51;0.00;;;0.00;;
54388;SDS011;40975;50.390;8.640;2023-04-01T08:07:25;0.00;;;0.00;;
54388;SDS011;40975;50.390;8.640;2023-04-01T08:10:32;0.00;;;0.00;;
54388;SDS011;40975;50.390;8.640;2023-04-01T08:16:52;0.00;;;0.00;;
54388;SDS011;40975;50.390;8.640;2023-04-01T08:19:46;0.00;;;0.00;;
54388;SDS011;40975;50.390;8.640;2023-04-01T08:22:26;0.00;;;0.00;;
54388;SDS011;40975;50.390;8.640;2023-04-01T08:24:57;0.00;;;0.00;;
54388;SDS011;40975;50.390;8.640;2023-04-01T08:27:35;0.00;;;0.00;;
54388;SDS011;40975;50.390;8.640;2023-04-01T08:30:18;0.00;;;0.00;;
54388;SDS011;40975;50.390;8.640;2023-04-01T08:32:46;0.00;;;0.00;;
54388;SDS011;40975;50.390;8.640;2023-04-01T08:35:36;0.00;;;0.00;;
54388;SDS011;40975;50.390;8.640;2023-04-01T08:38:17;0.00;;;0.00;;
54388;SDS011;40975;50.390;8.640;2023-04-01T08:41:07;0.00;;;0.00;;
54388;SDS011;40975;50.390;8.640;2023-04-01T08:44:24;0.00;;;0.00;;
54388;SDS011;40975;50.390;8.640;2023-04-01T08:47:03;0.00;;;0.00;;
54388;SDS011;40975;50.390;8.640;2023-04-01T08:49:56;0.00;;;0.00;;
54388;SDS011;40975;50.390;8.640;2023-04-01T08:53:12;0.00;;;0.00;;
54388;SDS011;40975;50.390;8.640;2023-04-01T09:04:29;0.00;;;0.00;;
54388;SDS011;40975;50.390;8.640;2023-04-01T09:12:27;0.00;;;0.00;;
54388;SDS011;40975;50.390;8.640;2023-04-01T09:23:45;0.00;;;0.00;;
54388;SDS011;40975;50.390;8.640;2023-04-01T09:26:25;0.00;;;0.00;;
54388;SDS011;40975;50.390;8.640;2023-04-01T09:34:43;0.00;;;0.00;;
54388;SDS011;40975;50.390;8.640;2023-04-01T09:40:09;0.00;;;0.00;;
54388;SDS011;40975;50.390;8.640;2023-04-01T09:54:10;0.00;;;0.00;;
54388;SDS011;40975;50.390;8.640;2023-04-01T10:30:04;0.00;;;0.00;;
54388;SDS011;40975;50.390;8.640;2023-04-01T10:38:28;0.00;;;0.00;;
54388;SDS011;40975;50.390;8.640;2023-04-01T10:53:34;0.00;;;0.00;;
54388;SDS011;40975;50.390;8.640;2023-04-01T10:56:40;0.00;;;0.00;;
54388;SDS011;40975;50.390;8.640;2023-04-01T11:03:22;0.00;;;0.00;;
54388;SDS011;40975;50.390;8.640;2023-04-01T11:37:44;0.00;;;0.00;;
54388;SDS011;40975;50.390;8.640;2023-04-01T11:40:58;0.00;;;0.00;;
54388;SDS011;40975;50.390;8.640;2023-04-01T11:47:01;0.00;;;0.00;;
54388;SDS011;40975;50.390;8.640;2023-04-01T11:52:54;0.00;;;0.00;;
54388;SDS011;40975;50.390;8.640;2023-04-01T11:55:24;0.00;;;0.00;;
54388;SDS011;40975;50.390;8.640;2023-04-01T11:58:14;0.00;;;0.00;;
54388;SDS011;40975;50.390;8.640;2023-04-01T12:06:16;0.20;;;0.20;;
54388;SDS011;40975;50.390;8.640;2023-04-01T12:11:39;0.40;;;0.30;;
54388;SDS011;40975;50.390;8.640;2023-04-01T12:14:21;1.52;;;0.45;;
54388;SDS011;40975;50.390;8.640;2023-04-01T12:19:48;0.30;;;0.20;;
54388;SDS011;40975;50.390;8.640;2023-04-01T12:24:58;0.40;;;0.30;;
54388;SDS011;40975;50.390;8.640;2023-04-01T12:27:50;0.17;;;0.17;;
54388;SDS011;40975;50.390;8.640;2023-04-01T12:30:39;0.45;;;0.22;;
54388;SDS011;40975;50.390;8.640;2023-04-01T12:36:13;0.30;;;0.30;;
54388;SDS011;40975;50.390;8.640;2023-04-01T12:44:37;0.40;;;0.40;;
54388;SDS011;40975;50.390;8.640;2023-04-01T12:55:36;0.40;;;0.40;;
54388;SDS011;40975;50.390;8.640;2023-04-01T13:06:26;0.30;;;0.30;;
54388;SDS011;40975;50.390;8.640;2023-04-01T13:09:10;0.47;;;0.30;;
54388;SDS011;40975;50.390;8.640;2023-04-01T13:17:43;0.52;;;0.50;;
54388;SDS011;40975;50.390;8.640;2023-04-01T13:23:33;0.40;;;0.40;;
54388;SDS011;40975;50.390;8.640;2023-04-01T13:29:30;0.40;;;0.40;;
54388;SDS011;40975;50.390;8.640;2023-04-01T13:32:05;0.30;;;0.30;;
54388;SDS011;40975;50.390;8.640;2023-04-01T13:40:20;0.25;;;0.20;;
54388;SDS011;40975;50.390;8.640;2023-04-01T13:42:49;1.25;;;0.45;;
54388;SDS011;40975;50.390;8.640;2023-04-01T13:45:22;0.40;;;0.32;;
54388;SDS011;40975;50.390;8.640;2023-04-01T13:50:51;0.30;;;0.30;;
54388;SDS011;40975;50.390;8.640;2023-04-01T13:53:32;0.63;;;0.32;;
54388;SDS011;40975;50.390;8.640;2023-04-01T14:01:42;0.50;;;0.30;;
54388;SDS011;40975;50.390;8.640;2023-04-01T14:10:18;0.38;;;0.30;;
54388;SDS011;40975;50.390;8.640;2023-04-01T14:12:57;0.60;;;0.40;;
54388;SDS011;40975;50.390;8.640;2023-04-01T14:18:15;1.38;;;0.30;;
54388;SDS011;40975;50.390;8.640;2023-04-01T14:26:57;0.32;;;0.30;;
54388;SDS011;40975;50.390;8.640;2023-04-01T14:29:58;0.40;;;0.40;;
54388;SDS011;40975;50.390;8.640;2023-04-01T14:32:49;0.30;;;0.30;;
54388;SDS011;40975;50.390;8.640;2023-04-01T14:35:38;0.20;;;0.20;;
54388;SDS011;40975;50.390;8.640;2023-04-01T14:38:43;0.40;;;0.40;;
54388;SDS011;40975;50.390;8.640;2023-04-01T14:41:32;0.40;;;0.40;;
54388;SDS011;40975;50.390;8.640;2023-04-01T14:44:22;0.28;;;0.10;;
54388;SDS011;40975;50.390;8.640;2023-04-01T14:47:15;1.13;;;0.30;;
54388;SDS011;40975;50.390;8.640;2023-04-01T14:50:02;0.30;;;0.30;;
54388;SDS011;40975;50.390;8.640;2023-04-01T14:52:31;0.20;;;0.20;;
54388;SDS011;40975;50.390;8.640;2023-04-01T14:55:00;0.50;;;0.30;;
54388;SDS011;40975;50.390;8.640;2023-04-01T14:57:36;0.20;;;0.20;;
54388;SDS011;40975;50.390;8.640;2023-04-01T15:00:12;0.25;;;0.25;;
54388;SDS011;40975;50.390;8.640;2023-04-01T15:02:45;0.30;;;0.30;;
54388;SDS011;40975;50.390;8.640;2023-04-01T15:08:51;0.40;;;0.38;;
54388;SDS011;40975;50.390;8.640;2023-04-01T15:20:01;0.80;;;0.50;;
54388;SDS011;40975;50.390;8.640;2023-04-01T15:22:52;0.30;;;0.30;;
54388;SDS011;40975;50.390;8.640;2023-04-01T15:28:24;0.20;;;0.20;;
54388;SDS011;40975;50.390;8.640;2023-04-01T15:34:07;0.20;;;0.20;;
54388;SDS011;40975;50.390;8.640;2023-04-01T15:36:56;0.32;;;0.20;;
54388;SDS011;40975;50.390;8.640;2023-04-01T15:39:40;0.98;;;0.30;;
54388;SDS011;40975;50.390;8.640;2023-04-01T15:45:31;0.57;;;0.30;;
54388;SDS011;40975;50.390;8.640;2023-04-01T15:47:35;1.40;;;0.40;;
54388;SDS011;40975;50.390;8.640;2023-04-01T15:52:43;1.10;;;0.75;;
54388;SDS011;40975;50.390;8.640;2023-04-01T15:58:27;0.22;;;0.20;;
54388;SDS011;40975;50.390;8.640;2023-04-01T16:01:13;0.32;;;0.30;;
54388;SDS011;40975;50.390;8.640;2023-04-01T16:10:09;0.73;;;0.30;;
54388;SDS011;40975;50.390;8.640;2023-04-01T16:12:50;0.50;;;0.28;;
54388;SDS011;40975;50.390;8.640;2023-04-01T16:15:26;0.20;;;0.20;;
54388;SDS011;40975;50.390;8.640;2023-04-01T16:18:04;0.20;;;0.20;;
54388;SDS011;40975;50.390;8.640;2023-04-01T16:20:44;0.38;;;0.20;;
54388;SDS011;40975;50.390;8.640;2023-04-01T16:23:18;1.30;;;0.63;;
54388;SDS011;40975;50.390;8.640;2023-04-01T16:28:54;0.60;;;0.20;;
54388;SDS011;40975;50.390;8.640;2023-04-01T16:31:30;0.75;;;0.20;;
54388;SDS011;40975;50.390;8.640;2023-04-01T16:44:31;0.20;;;0.20;;
54388;SDS011;40975;50.390;8.640;2023-04-01T16:47:16;0.17;;;0.17;;
54388;SDS011;40975;50.390;8.640;2023-04-01T16:50:25;0.10;;;0.10;;
54388;SDS011;40975;50.390;8.640;2023-04-01T16:58:26;0.30;;;0.17;;
54388;SDS011;40975;50.390;8.640;2023-04-01T17:01:09;0.40;;;0.20;;
54388;SDS011;40975;50.390;8.640;2023-04-01T17:03:45;0.50;;;0.35;;
54388;SDS011;40975;50.390;8.640;2023-04-01T17:11:53;1.65;;;0.20;;
54388;SDS011;40975;50.390;8.640;2023-04-01T17:14:49;0.52;;;0.30;;
54388;SDS011;40975;50.390;8.640;2023-04-01T17:17:40;0.28;;;0.28;;
54388;SDS011;40975;50.390;8.640;2023-04-01T17:23:12;0.20;;;0.20;;
54388;SDS011;40975;50.390;8.640;2023-04-01T17:36:31;0.30;;;0.30;;
54388;SDS011;40975;50.390;8.640;2023-04-01T17:50:14;0.55;;;0.35;;
54388;SDS011;40975;50.390;8.640;2023-04-01T17:55:23;1.63;;;0.70;;
54388;SDS011;40975;50.390;8.640;2023-04-01T18:00:51;0.82;;;0.47;;
54388;SDS011;40975;50.390;8.640;2023-04-01T18:10:01;0.85;;;0.43;;
54388;SDS011;40975;50.390;8.640;2023-04-01T18:12:21;0.45;;;0.40;;
54388;SDS011;40975;50.390;8.640;2023-04-01T18:23:48;0.38;;;0.38;;
54388;SDS011;40975;50.390;8.640;2023-04-01T18:26:31;0.20;;;0.20;;
54388;SDS011;40975;50.390;8.640;2023-04-01T18:29:04;1.67;;;0.40;;
54388;SDS011;40975;50.390;8.640;2023-04-01T18:31:43;0.30;;;0.30;;
54388;SDS011;40975;50.390;8.640;2023-04-01T18:36:49;2.13;;;0.52;;
54388;SDS011;40975;50.390;8.640;2023-04-01T18:39:22;0.52;;;0.52;;
54388;SDS011;40975;50.390;8.640;2023-04-01T18:42:08;0.40;;;0.30;;
54388;SDS011;40975;50.390;8.640;2023-04-01T18:44:41;0.60;;;0.50;;
54388;SDS011;40975;50.390;8.640;2023-04-01T18:50:18;0.75;;;0.30;;
54388;SDS011;40975;50.390;8.640;2023-04-01T18:52:51;0.55;;;0.35;;
54388;SDS011;40975;50.390;8.640;2023-04-01T18:55:31;1.38;;;0.40;;
54388;SDS011;40975;50.390;8.640;2023-04-01T18:58:10;0.47;;;0.40;;
54388;SDS011;40975;50.390;8.640;2023-04-01T19:00:41;0.68;;;0.40;;
54388;SDS011;40975;50.390;8.640;2023-04-01T19:05:48;0.82;;;0.40;;
54388;SDS011;40975;50.390;8.640;2023-04-01T19:22:40;0.95;;;0.80;;
54388;SDS011;40975;50.390;8.640;2023-04-01T19:36:20;0.82;;;0.50;;
54388;SDS011;40975;50.390;8.640;2023-04-01T19:39:09;0.60;;;0.40;;
54388;SDS011;40975;50.390;8.640;2023-04-01T19:47:45;0.40;;;0.40;;
54388;SDS011;40975;50.390;8.640;2023-04-01T19:52:59;0.55;;;0.45;;
54388;SDS011;40975;50.390;8.640;2023-04-01T19:55:53;2.40;;;0.40;;
54388;SDS011;40975;50.390;8.640;2023-04-01T19:58:31;0.50;;;0.40;;
54388;SDS011;40975;50.390;8.640;2023-04-01T20:01:01;0.30;;;0.30;;
54388;SDS011;40975;50.390;8.640;2023-04-01T20:09:11;1.00;;;0.30;;
54388;SDS011;40975;50.390;8.640;2023-04-01T20:25:23;0.50;;;0.40;;
54388;SDS011;40975;50.390;8.640;2023-04-01T20:28:02;0.50;;;0.40;;
54388;SDS011;40975;50.390;8.640;2023-04-01T20:41:34;0.93;;;0.60;;
54388;SDS011;40975;50.390;8.640;2023-04-01T20:44:13;0.50;;;0.50;;
54388;SDS011;40975;50.390;8.640;2023-04-01T20:46:48;1.48;;;0.90;;
54388;SDS011;40975;50.390;8.640;2023-04-01T20:49:30;0.82;;;0.70;;
54388;SDS011;40975;50.390;8.640;2023-04-01T21:03:23;1.08;;;0.80;;
54388;SDS011;40975;50.390;8.640;2023-04-01T21:08:51;1.58;;;1.08;;
54388;SDS011;40975;50.390;8.640;2023-04-01T21:11:38;1.67;;;1.13;;
54388;SDS011;40975;50.390;8.640;2023-04-01T21:14:56;1.05;;;0.95;;
54388;SDS011;40975;50.390;8.640;2023-04-01T21:22:55;1.10;;;0.90;;
54388;SDS011;40975;50.390;8.640;2023-04-01T21:39:37;1.00;;;0.80;;
54388;SDS011;40975;50.390;8.640;2023-04-01T21:48:29;2.40;;;1.10;;
54388;SDS011;40975;50.390;8.640;2023-04-01T21:59:25;1.20;;;1.10;;
54388;SDS011;40975;50.390;8.640;2023-04-01T22:02:34;0.80;;;0.68;;
54388;SDS011;40975;50.390;8.640;2023-04-01T22:05:25;1.08;;;0.73;;
54388;SDS011;40975;50.390;8.640;2023-04-01T22:11:15;1.48;;;1.08;;
54388;SDS011;40975;50.390;8.640;2023-04-01T22:13:50;1.13;;;0.87;;
54388;SDS011;40975;50.390;8.640;2023-04-01T22:19:10;1.30;;;1.10;;
54388;SDS011;40975;50.390;8.640;2023-04-01T22:22:19;1.30;;;0.98;;
54388;SDS011;40975;50.390;8.640;2023-04-01T22:24:48;1.10;;;0.90;;
54388;SDS011;40975;50.390;8.640;2023-04-01T22:27:24;0.93;;;0.82;;
54388;SDS011;40975;50.390;8.640;2023-04-01T22:33:02;1.10;;;0.60;;
54388;SDS011;40975;50.390;8.640;2023-04-01T22:38:19;1.10;;;0.60;;
54388;SDS011;40975;50.390;8.640;2023-04-01T22:41:12;1.42;;;0.70;;
54388;SDS011;40975;50.390;8.640;2023-04-01T22:43:46;1.00;;;0.70;;
54388;SDS011;40975;50.390;8.640;2023-04-01T22:59:53;1.35;;;0.90;;
54388;SDS011;40975;50.390;8.640;2023-04-01T23:02:24;2.22;;;1.63;;
54388;SDS011;40975;50.390;8.640;2023-04-01T23:04:59;2.75;;;1.55;;
54388;SDS011;40975;50.390;8.640;2023-04-01T23:10:52;4.82;;;2.50;;
54388;SDS011;40975;50.390;8.640;2023-04-01T23:13:22;5.68;;;3.15;;
54388;SDS011;40975;50.390;8.640;2023-04-01T23:15:54;3.97;;;2.90;;
54388;SDS011;40975;50.390;8.640;2023-04-01T23:18:22;7.15;;;4.18;;
54388;SDS011;40975;50.390;8.640;2023-04-01T23:21:00;4.97;;;2.20;;
54388;SDS011;40975;50.390;8.640;2023-04-01T23:23:55;2.22;;;1.40;;
54388;SDS011;40975;50.390;8.640;2023-04-01T23:26:39;2.45;;;1.83;;
54388;SDS011;40975;50.390;8.640;2023-04-01T23:29:13;2.13;;;1.42;;
54388;SDS011;40975;50.390;8.640;2023-04-01T23:31:41;1.88;;;1.00;;
54388;SDS011;40975;50.390;8.640;2023-04-01T23:36:37;1.63;;;1.10;;
54388;SDS011;40975;50.390;8.640;2023-04-01T23:39:06;1.35;;;1.10;;
54388;SDS011;40975;50.390;8.640;2023-04-01T23:41:59;1.27;;;1.00;;
54388;SDS011;40975;50.390;8.640;2023-04-01T23:44:45;1.25;;;1.02;;
54388;SDS011;40975;50.390;8.640;2023-04-01T23:47:17;0.98;;;0.70;;
54388;SDS011;40975;50.390;8.640;2023-04-01T23:49:46;0.73;;;0.70;;
54388;SDS011;40975;50.390;8.640;2023-04-01T23:55:00;1.70;;;0.98;;
54388;SDS011;40975;50.390;8.640;2023-04-01T23:57:36;2.35;;;1.05;;
